createdAt,value
2023-03-02T00:00:57.876Z,100509.84
2023-03-02T00:03:24.749Z,100532.16
2023-03-02T00:05:51.666Z,100545.03
2023-03-02T00:08:18.496Z,100550.34
2023-03-02T00:10:45.808Z,100509.56
2023-03-02T00:13:12.957Z,100486.41
2023-03-02T00:15:39.979Z,100488.34
2023-03-02T00:18:06.817Z,100520.97
2023-03-02T00:20:35.009Z,100505.06
2023-03-02T00:23:01.824Z,100542.47
2023-03-02T00:25:28.912Z,100551.69
2023-03-02T00:27:55.785Z,100529.06
2023-03-02T00:30:22.549Z,100508.69
2023-03-02T00:32:49.382Z,100538.84
2023-03-02T00:35:16.505Z,100552.22
2023-03-02T00:37:43.528Z,100534.91
2023-03-02T00:40:10.944Z,100482.13
2023-03-02T00:42:38.084Z,100524.03
2023-03-02T00:45:06.018Z,100543.28
2023-03-02T00:47:36.784Z,100531.25
2023-03-02T00:50:05.056Z,100533.47
2023-03-02T00:52:32.513Z,100559.69
2023-03-02T00:54:59.539Z,100495.16
2023-03-02T00:57:26.481Z,100550.75
2023-03-02T00:59:53.343Z,100538.75
2023-03-02T01:02:21.861Z,100553.53
2023-03-02T01:04:48.888Z,100505.50
2023-03-02T01:07:17.384Z,100496.56
2023-03-02T01:09:44.697Z,100536.78
2023-03-02T01:12:11.602Z,100552.97
2023-03-02T01:14:39.192Z,100516.91
2023-03-02T01:17:06.696Z,100509.03
2023-03-02T01:19:33.721Z,100478.31
2023-03-02T01:22:00.611Z,100503.97
2023-03-02T01:24:27.429Z,100558.47
2023-03-02T01:26:54.359Z,100488.63
2023-03-02T01:29:21.194Z,100538.91
2023-03-02T01:31:48.077Z,100488.31
2023-03-02T01:34:15.019Z,100571.25
2023-03-02T01:36:44.919Z,100519.00
2023-03-02T01:39:16.117Z,100553.91
2023-03-02T01:41:46.104Z,100535.13
2023-03-02T01:44:32.780Z,100556.75
2023-03-02T01:46:59.581Z,100520.13
2023-03-02T01:49:26.390Z,100547.56
2023-03-02T01:51:53.412Z,100530.19
2023-03-02T01:54:23.325Z,100524.09
2023-03-02T01:56:51.429Z,100564.88
2023-03-02T01:59:19.727Z,100519.06
2023-03-02T02:01:50.606Z,100488.38
2023-03-02T02:04:17.796Z,100552.91
2023-03-02T02:07:00.957Z,100549.28
2023-03-02T02:09:28.465Z,100551.50
2023-03-02T02:11:55.276Z,100534.75
2023-03-02T02:14:22.254Z,100549.28
2023-03-02T02:16:49.049Z,100508.94
2023-03-02T02:19:24.743Z,100555.91
2023-03-02T02:21:51.509Z,100511.72
2023-03-02T02:24:23.245Z,100429.56
2023-03-02T02:26:51.994Z,100549.50
2023-03-02T02:29:25.216Z,100484.66
2023-03-02T02:31:54.121Z,100538.91
2023-03-02T02:34:36.238Z,100536.97
2023-03-02T02:37:28.786Z,100518.84
2023-03-02T02:39:55.875Z,100490.56
2023-03-02T02:42:28.898Z,100487.84
2023-03-02T02:44:57.798Z,100473.63
2023-03-02T02:47:24.598Z,100492.31
2023-03-02T02:49:52.921Z,100471.38
2023-03-02T02:52:20.948Z,100502.44
2023-03-02T02:54:50.526Z,100456.91
2023-03-02T02:57:17.949Z,100481.22
2023-03-02T02:59:52.875Z,100503.56
2023-03-02T03:02:28.592Z,100508.84
2023-03-02T03:05:02.939Z,100492.06
2023-03-02T03:07:32.728Z,100416.84
2023-03-02T03:10:24.704Z,100497.88
2023-03-02T03:12:51.914Z,100460.31
2023-03-02T03:15:18.766Z,100512.59
2023-03-02T03:17:55.304Z,100511.91
2023-03-02T03:20:22.129Z,100466.25
2023-03-02T03:22:48.972Z,100476.19
2023-03-02T03:25:16.012Z,100517.25
2023-03-02T03:27:43.124Z,100408.19
2023-03-02T03:30:12.138Z,100454.28
2023-03-02T03:32:39.201Z,100476.56
2023-03-02T03:35:08.933Z,100403.78
2023-03-02T03:37:35.777Z,100351.47
2023-03-02T03:40:02.871Z,100484.75
2023-03-02T03:42:29.608Z,100510.72
2023-03-02T03:44:56.349Z,100456.88
2023-03-02T03:47:23.274Z,100464.06
2023-03-02T03:49:50.133Z,100462.13
2023-03-02T03:52:16.857Z,100489.13
2023-03-02T03:54:43.752Z,100505.00
2023-03-02T03:57:12.282Z,100475.88
2023-03-02T03:59:39.026Z,100474.28
2023-03-02T04:02:06.091Z,100513.94
2023-03-02T04:04:34.184Z,100536.81
2023-03-02T04:07:00.929Z,100475.34
2023-03-02T04:09:27.981Z,100522.72
2023-03-02T04:11:55.546Z,100496.75
2023-03-02T04:14:22.980Z,100450.34
2023-03-02T04:16:49.980Z,100494.84
2023-03-02T04:19:17.796Z,100473.88
2023-03-02T04:21:47.646Z,100473.34
2023-03-02T04:24:14.731Z,100512.59
2023-03-02T04:26:42.743Z,100484.34
2023-03-02T04:29:09.931Z,100489.09
2023-03-02T04:31:36.735Z,100539.44
2023-03-02T04:34:06.314Z,100481.28
2023-03-02T04:36:34.589Z,100508.94
2023-03-02T04:39:01.750Z,100528.09
2023-03-02T04:41:28.477Z,100521.56
2023-03-02T04:43:55.379Z,100529.53
2023-03-02T04:46:23.781Z,100524.25
2023-03-02T04:48:50.618Z,100500.03
2023-03-02T04:51:26.394Z,100531.44
2023-03-02T04:53:57.714Z,100558.22
2023-03-02T04:56:24.618Z,100515.88
2023-03-02T04:58:51.870Z,100516.25
2023-03-02T05:01:18.696Z,100436.03
2023-03-02T05:03:45.641Z,100569.09
2023-03-02T05:06:12.631Z,100571.56
2023-03-02T05:08:39.493Z,100556.38
2023-03-02T05:11:06.724Z,100544.09
2023-03-02T05:13:33.961Z,100586.19
2023-03-02T05:16:00.804Z,100545.19
2023-03-02T05:18:27.586Z,100548.41
2023-03-02T05:20:54.602Z,100542.25
2023-03-02T05:23:25.540Z,100568.03
2023-03-02T05:25:55.304Z,100466.78
2023-03-02T05:28:23.444Z,100570.50
2023-03-02T05:30:50.427Z,100597.38
2023-03-02T05:33:17.484Z,100563.00
2023-03-02T05:35:44.454Z,100585.09
2023-03-02T05:38:11.845Z,100610.63
2023-03-02T05:40:39.568Z,100548.59
2023-03-02T05:43:06.453Z,100559.63
2023-03-02T05:45:35.559Z,100519.88
2023-03-02T05:48:02.610Z,100610.88
2023-03-02T05:50:29.360Z,100571.38
2023-03-02T05:52:56.165Z,100590.63
2023-03-02T05:55:22.983Z,100539.56
2023-03-02T05:57:49.910Z,100596.69
2023-03-02T06:00:17.374Z,100616.34
2023-03-02T06:02:44.366Z,100502.00
2023-03-02T06:05:16.347Z,100586.78
2023-03-02T06:07:43.349Z,100567.88
2023-03-02T06:10:11.321Z,100571.81
2023-03-02T06:12:38.399Z,100634.53
2023-03-02T06:15:07.518Z,100580.75
2023-03-02T06:17:34.335Z,100505.19
2023-03-02T06:20:01.257Z,100582.59
2023-03-02T06:22:28.031Z,100617.81
2023-03-02T06:24:57.982Z,100641.34
2023-03-02T06:27:24.696Z,100637.75
2023-03-02T06:29:51.578Z,100622.19
2023-03-02T06:32:18.561Z,100637.72
2023-03-02T06:34:45.571Z,100627.84
2023-03-02T06:37:12.295Z,100655.91
2023-03-02T06:39:39.389Z,100642.03
2023-03-02T06:42:06.486Z,100649.75
2023-03-02T06:44:33.237Z,100655.38
2023-03-02T06:47:00.126Z,100585.94
2023-03-02T06:49:27.218Z,100660.44
2023-03-02T06:51:54.032Z,100604.84
2023-03-02T06:54:22.632Z,100626.59
2023-03-02T06:56:50.512Z,100663.28
2023-03-02T06:59:17.340Z,100634.34
2023-03-02T07:01:44.297Z,100630.28
2023-03-02T07:04:11.093Z,100553.88
2023-03-02T07:06:37.980Z,100657.09
2023-03-02T07:09:04.789Z,100673.34
2023-03-02T07:11:31.763Z,100601.94
2023-03-02T07:14:00.566Z,100683.50
2023-03-02T07:16:27.715Z,100676.97
2023-03-02T07:18:54.736Z,100689.22
2023-03-02T07:21:21.772Z,100648.22
2023-03-02T07:23:48.611Z,100705.31
2023-03-02T07:26:15.394Z,100638.44
2023-03-02T07:28:43.593Z,100648.47
2023-03-02T07:31:11.145Z,100704.59
2023-03-02T07:33:38.758Z,100673.81
2023-03-02T07:36:06.824Z,100696.63
2023-03-02T07:38:33.744Z,100734.66
2023-03-02T07:41:00.690Z,100628.66
2023-03-02T07:43:29.009Z,100705.13
2023-03-02T07:45:56.400Z,100717.78
2023-03-02T07:48:23.993Z,100750.53
2023-03-02T07:50:50.805Z,100704.91
2023-03-02T07:53:17.566Z,100728.47
2023-03-02T07:55:44.727Z,100753.38
2023-03-02T07:58:11.645Z,100763.72
2023-03-02T08:00:41.261Z,100709.69
2023-03-02T08:03:09.375Z,100718.84
2023-03-02T08:05:36.386Z,100635.22
2023-03-02T08:08:03.128Z,100768.88
2023-03-02T08:10:29.868Z,100762.66
2023-03-02T08:12:56.858Z,100722.25
2023-03-02T08:15:23.811Z,100704.97
2023-03-02T08:17:50.702Z,100765.19
2023-03-02T08:20:17.651Z,100723.00
2023-03-02T08:22:44.383Z,100772.31
2023-03-02T08:25:11.205Z,100745.53
2023-03-02T08:27:40.445Z,100778.16
2023-03-02T08:30:07.696Z,100764.22
2023-03-02T08:32:34.673Z,100758.66
2023-03-02T08:35:01.682Z,100769.09
2023-03-02T08:37:28.730Z,100758.72
2023-03-02T08:39:57.488Z,100800.66
2023-03-02T08:42:25.465Z,100788.31
2023-03-02T08:44:52.310Z,100784.59
2023-03-02T08:47:19.042Z,100765.81
2023-03-02T08:49:47.985Z,100736.69
2023-03-02T08:52:15.565Z,100785.19
2023-03-02T08:54:42.518Z,100776.50
2023-03-02T08:57:12.518Z,100758.94
2023-03-02T08:59:39.287Z,100756.13
2023-03-02T09:02:06.092Z,100795.88
2023-03-02T09:04:32.987Z,100745.63
2023-03-02T09:06:59.722Z,100809.94
2023-03-02T09:09:26.597Z,100799.28
2023-03-02T09:11:53.525Z,100784.72
2023-03-02T09:14:20.326Z,100796.44
2023-03-02T09:16:47.606Z,100743.91
2023-03-02T09:19:14.668Z,100793.00
2023-03-02T09:21:41.506Z,100797.41
2023-03-02T09:24:08.536Z,100794.78
2023-03-02T09:26:36.341Z,100762.81
2023-03-02T09:29:03.143Z,100783.72
2023-03-02T09:31:30.499Z,100809.84
2023-03-02T09:33:57.561Z,100778.41
2023-03-02T09:36:25.152Z,100709.13
2023-03-02T09:38:52.293Z,100669.47
2023-03-02T09:41:19.472Z,100798.31
2023-03-02T09:44:17.062Z,100791.63
2023-03-02T09:46:56.668Z,100712.84
2023-03-02T09:49:41.707Z,100789.13
2023-03-02T09:52:29.434Z,100806.66
2023-03-02T09:54:57.265Z,100773.41
2023-03-02T09:57:31.760Z,100796.41
2023-03-02T10:00:19.257Z,100783.25
2023-03-02T10:03:17.222Z,100765.91
2023-03-02T10:05:46.354Z,100783.59
2023-03-02T10:08:34.521Z,100771.78
2023-03-02T10:11:35.479Z,100803.75
2023-03-02T10:14:13.747Z,100717.44
2023-03-02T10:16:53.427Z,100790.13
2023-03-02T10:19:28.824Z,100760.66
2023-03-02T10:22:09.559Z,100776.31
2023-03-02T10:24:38.845Z,100798.13
2023-03-02T10:27:28.358Z,100646.22
2023-03-02T10:30:09.254Z,100813.16
2023-03-02T10:32:37.599Z,100770.78
2023-03-02T10:35:30.918Z,100803.59
2023-03-02T10:38:20.648Z,100774.19
2023-03-02T10:41:03.084Z,100805.41
2023-03-02T10:43:37.535Z,100782.50
2023-03-02T10:46:07.823Z,100802.75
2023-03-02T10:48:53.437Z,100732.41
2023-03-02T10:51:28.137Z,100778.94
2023-03-02T10:54:10.918Z,100800.13
2023-03-02T10:56:37.928Z,100783.22
2023-03-02T10:59:40.513Z,100807.31
2023-03-02T11:02:23.741Z,100796.19
2023-03-02T11:04:58.373Z,100776.31
2023-03-02T11:07:29.262Z,100756.63
2023-03-02T11:10:01.997Z,100801.69
2023-03-02T11:12:29.250Z,100801.16
2023-03-02T11:15:12.383Z,100769.22
2023-03-02T11:17:39.307Z,100753.13
2023-03-02T11:20:06.944Z,100792.41
2023-03-02T11:22:38.900Z,100790.38
2023-03-02T11:25:07.044Z,100763.50
2023-03-02T11:27:35.202Z,100753.00
2023-03-02T11:30:18.927Z,100789.91
2023-03-02T11:33:16.592Z,100776.28
2023-03-02T11:35:49.497Z,100798.88
2023-03-02T11:38:49.086Z,100784.41
2023-03-02T11:41:27.609Z,100779.53
2023-03-02T11:43:55.059Z,100770.53
2023-03-02T11:46:27.628Z,100783.59
2023-03-02T11:48:55.889Z,100737.84
2023-03-02T11:51:24.464Z,100763.34
2023-03-02T11:54:20.157Z,100789.22
2023-03-02T11:56:47.131Z,100741.25
2023-03-02T11:59:17.084Z,100770.00
2023-03-02T12:01:45.370Z,100794.59
2023-03-02T12:04:32.768Z,100744.94
2023-03-02T12:07:05.143Z,100709.31
2023-03-02T12:09:36.718Z,100782.84
2023-03-02T12:12:23.875Z,100771.03
2023-03-02T12:14:50.725Z,100737.13
2023-03-02T12:17:26.831Z,100780.50
2023-03-02T12:20:08.896Z,100776.56
2023-03-02T12:22:36.080Z,100752.81
2023-03-02T12:25:21.303Z,100780.94
2023-03-02T12:27:49.807Z,100767.06
2023-03-02T12:30:16.870Z,100780.38
2023-03-02T12:32:44.778Z,100735.72
2023-03-02T12:35:13.143Z,100751.41
2023-03-02T12:37:53.613Z,100767.34
2023-03-02T12:40:45.303Z,100753.19
2023-03-02T12:43:27.881Z,100748.44
2023-03-02T12:46:32.671Z,100748.88
2023-03-02T12:49:11.575Z,100745.47
2023-03-02T12:51:48.922Z,100739.53
2023-03-02T12:54:17.840Z,100716.22
2023-03-02T12:56:44.594Z,100738.84
2023-03-02T12:59:25.539Z,100675.72
2023-03-02T13:01:52.386Z,100720.00
2023-03-02T13:04:26.156Z,100675.31
2023-03-02T13:06:53.934Z,100714.22
2023-03-02T13:09:21.169Z,100692.25
2023-03-02T13:11:49.486Z,100679.94
2023-03-02T13:14:20.089Z,100699.66
2023-03-02T13:16:54.853Z,100710.50
2023-03-02T13:19:21.654Z,100723.94
2023-03-02T13:21:48.557Z,100675.06
2023-03-02T13:24:34.870Z,100691.47
2023-03-02T13:27:08.451Z,100617.03
2023-03-02T13:29:35.669Z,100693.47
2023-03-02T13:32:42.223Z,100695.56
2023-03-02T13:35:26.578Z,100668.50
2023-03-02T13:37:59.005Z,100686.25
2023-03-02T13:40:39.258Z,100601.16
2023-03-02T13:43:40.619Z,100611.66
2023-03-02T13:46:13.860Z,100684.88
2023-03-02T13:48:40.624Z,100689.69
2023-03-02T13:51:17.771Z,100593.91
2023-03-02T13:54:00.768Z,100668.31
2023-03-02T13:56:33.257Z,100653.06
2023-03-02T13:59:00.952Z,100654.94
2023-03-02T14:01:28.325Z,100682.50
2023-03-02T14:03:57.321Z,100669.75
2023-03-02T14:06:24.140Z,100671.84
2023-03-02T14:08:50.959Z,100688.97
2023-03-02T14:11:18.085Z,100656.97
2023-03-02T14:13:51.415Z,100679.41
2023-03-02T14:16:18.851Z,100655.41
2023-03-02T14:18:47.132Z,100647.03
2023-03-02T14:21:20.895Z,100672.09
2023-03-02T14:23:47.845Z,100640.94
2023-03-02T14:26:33.610Z,100666.72
2023-03-02T14:29:06.298Z,100620.53
2023-03-02T14:31:34.510Z,100644.94
2023-03-02T14:34:02.010Z,100675.50
2023-03-02T14:36:33.247Z,100645.13
2023-03-02T14:39:02.186Z,100647.63
2023-03-02T14:41:29.201Z,100665.59
2023-03-02T14:43:55.945Z,100624.66
2023-03-02T14:46:22.967Z,100635.38
2023-03-02T14:48:49.825Z,100636.63
2023-03-02T14:51:24.785Z,100603.03
2023-03-02T14:53:51.905Z,100621.28
2023-03-02T14:56:20.248Z,100622.84
2023-03-02T14:58:47.212Z,100672.53
2023-03-02T15:01:14.064Z,100651.22
2023-03-02T15:03:40.923Z,100633.50
2023-03-02T15:06:26.542Z,100611.19
2023-03-02T15:08:54.668Z,100659.75
2023-03-02T15:11:21.540Z,100667.47
2023-03-02T15:13:48.489Z,100635.31
2023-03-02T15:16:15.705Z,100669.31
2023-03-02T15:18:42.603Z,100623.09
2023-03-02T15:21:18.742Z,100656.50
2023-03-02T15:23:45.581Z,100645.94
2023-03-02T15:26:13.986Z,100607.53
2023-03-02T15:28:41.424Z,100646.78
2023-03-02T15:31:09.885Z,100630.38
2023-03-02T15:33:36.873Z,100661.03
2023-03-02T15:36:06.582Z,100646.56
2023-03-02T15:38:34.289Z,100619.63
2023-03-02T15:41:11.611Z,100553.16
2023-03-02T15:43:38.461Z,100661.22
2023-03-02T15:46:09.668Z,100654.34
2023-03-02T15:48:37.043Z,100636.97
2023-03-02T15:51:05.422Z,100620.28
2023-03-02T15:53:35.049Z,100659.81
2023-03-02T15:56:10.600Z,100671.59
2023-03-02T15:58:37.459Z,100640.47
2023-03-02T16:01:08.467Z,100656.06
2023-03-02T16:03:35.415Z,100675.09
2023-03-02T16:06:02.543Z,100668.97
2023-03-02T16:08:29.367Z,100663.63
2023-03-02T16:10:59.988Z,100628.28
2023-03-02T16:13:26.961Z,100663.72
2023-03-02T16:15:54.338Z,100638.22
2023-03-02T16:18:21.189Z,100623.16
2023-03-02T16:20:47.928Z,100670.88
2023-03-02T16:23:16.275Z,100649.69
2023-03-02T16:25:50.140Z,100666.16
2023-03-02T16:28:17.732Z,100679.69
2023-03-02T16:30:44.752Z,100683.94
2023-03-02T16:33:16.436Z,100668.00
2023-03-02T16:35:43.304Z,100636.59
2023-03-02T16:38:10.218Z,100671.31
2023-03-02T16:40:40.221Z,100670.38
2023-03-02T16:43:09.128Z,100580.25
2023-03-02T16:45:36.203Z,100643.28
2023-03-02T16:48:04.314Z,100663.16
2023-03-02T16:50:31.195Z,100680.47
2023-03-02T16:52:59.320Z,100693.94
2023-03-02T16:55:26.335Z,100638.22
2023-03-02T16:57:53.131Z,100710.00
2023-03-02T17:00:20.513Z,100699.38
2023-03-02T17:02:47.596Z,100651.50
2023-03-02T17:05:14.899Z,100666.91
2023-03-02T17:07:41.840Z,100711.56
2023-03-02T17:10:09.847Z,100704.59
2023-03-02T17:12:36.596Z,100702.75
2023-03-02T17:15:03.583Z,100674.00
2023-03-02T17:17:31.190Z,100715.63
2023-03-02T17:19:58.104Z,100663.00
2023-03-02T17:22:25.144Z,100687.81
2023-03-02T17:24:52.083Z,100589.22
2023-03-02T17:27:24.985Z,100679.31
2023-03-02T17:29:52.698Z,100710.84
2023-03-02T17:32:19.570Z,100729.25
2023-03-02T17:34:47.030Z,100726.19
2023-03-02T17:37:14.313Z,100721.50
2023-03-02T17:39:41.345Z,100703.47
2023-03-02T17:42:08.157Z,100748.50
2023-03-02T17:44:37.672Z,100731.53
2023-03-02T17:47:06.500Z,100708.94
2023-03-02T17:49:33.260Z,100663.38
2023-03-02T17:52:00.340Z,100725.28
2023-03-02T17:54:27.298Z,100656.69
2023-03-02T17:56:54.053Z,100720.41
2023-03-02T17:59:21.053Z,100613.84
2023-03-02T18:01:47.863Z,100674.09
2023-03-02T18:04:14.729Z,100731.56
2023-03-02T18:06:41.665Z,100668.88
2023-03-02T18:09:08.497Z,100702.91
2023-03-02T18:11:35.310Z,100711.16
2023-03-02T18:14:02.326Z,100758.53
2023-03-02T18:16:29.534Z,100719.56
2023-03-02T18:18:57.501Z,100702.31
2023-03-02T18:21:24.531Z,100752.53
2023-03-02T18:23:51.520Z,100695.41
2023-03-02T18:26:20.563Z,100774.38
2023-03-02T18:28:47.500Z,100631.28
2023-03-02T18:31:15.203Z,100763.22
2023-03-02T18:33:42.054Z,100745.97
2023-03-02T18:36:09.263Z,100756.63
2023-03-02T18:38:36.176Z,100753.84
2023-03-02T18:41:04.098Z,100782.69
2023-03-02T18:43:35.081Z,100771.50
2023-03-02T18:46:04.109Z,100753.41
2023-03-02T18:48:31.477Z,100677.50
2023-03-02T18:50:58.687Z,100728.06
2023-03-02T18:53:26.620Z,100728.13
2023-03-02T18:55:56.570Z,100786.22
2023-03-02T18:58:24.016Z,100784.28
2023-03-02T19:00:51.848Z,100800.78
2023-03-02T19:03:18.634Z,100803.63
2023-03-02T19:05:45.599Z,100805.28
2023-03-02T19:08:12.461Z,100769.84
2023-03-02T19:10:39.917Z,100782.16
2023-03-02T19:13:09.464Z,100783.00
2023-03-02T19:15:38.357Z,100805.94
2023-03-02T19:18:05.257Z,100819.66
2023-03-02T19:20:32.381Z,100726.84
2023-03-02T19:22:59.226Z,100786.06
2023-03-02T19:25:25.992Z,100726.00
2023-03-02T19:27:52.889Z,100769.59
2023-03-02T19:30:22.592Z,100754.78
2023-03-02T19:32:49.466Z,100773.81
2023-03-02T19:35:18.155Z,100793.91
2023-03-02T19:37:45.143Z,100789.72
2023-03-02T19:40:17.482Z,100815.44
2023-03-02T19:42:45.622Z,100783.59
2023-03-02T19:45:15.448Z,100820.78
2023-03-02T19:47:42.741Z,100788.06
2023-03-02T19:50:10.153Z,100826.09
2023-03-02T19:52:37.652Z,100819.94
2023-03-02T19:55:06.535Z,100787.22
2023-03-02T19:57:33.580Z,100801.19
2023-03-02T20:00:00.396Z,100832.81
2023-03-02T20:02:27.374Z,100782.75
2023-03-02T20:04:54.250Z,100814.38
2023-03-02T20:07:20.967Z,100782.22
2023-03-02T20:09:47.838Z,100802.63
2023-03-02T20:12:15.922Z,100818.56
2023-03-02T20:14:44.451Z,100796.75
2023-03-02T20:17:11.455Z,100783.06
2023-03-02T20:19:38.334Z,100819.09
2023-03-02T20:22:07.004Z,100833.38
2023-03-02T20:24:33.999Z,100832.28
2023-03-02T20:27:00.853Z,100839.00
2023-03-02T20:29:27.736Z,100764.31
2023-03-02T20:31:54.710Z,100845.97
2023-03-02T20:34:21.535Z,100810.19
2023-03-02T20:36:48.393Z,100798.44
2023-03-02T20:39:18.531Z,100849.34
2023-03-02T20:41:47.752Z,100850.47
2023-03-02T20:44:14.971Z,100842.03
2023-03-02T20:46:47.722Z,100849.06
2023-03-02T20:49:15.525Z,100820.78
2023-03-02T20:51:44.021Z,100820.50
2023-03-02T20:54:10.865Z,100812.66
2023-03-02T20:56:37.690Z,100831.97
2023-03-02T20:59:04.612Z,100809.59
2023-03-02T21:01:31.603Z,100772.13
2023-03-02T21:03:58.684Z,100865.53
2023-03-02T21:06:25.512Z,100856.00
2023-03-02T21:08:52.809Z,100758.38
2023-03-02T21:11:20.885Z,100844.81
2023-03-02T21:13:47.919Z,100838.94
2023-03-02T21:16:21.040Z,100810.13
2023-03-02T21:18:47.823Z,100880.91
2023-03-02T21:21:15.801Z,100852.94
2023-03-02T21:23:42.874Z,100817.91
2023-03-02T21:26:10.500Z,100867.19
2023-03-02T21:28:37.480Z,100840.31
2023-03-02T21:31:05.074Z,100838.06
2023-03-02T21:33:32.125Z,100883.16
2023-03-02T21:35:58.898Z,100892.38
2023-03-02T21:38:25.865Z,100849.56
2023-03-02T21:40:52.894Z,100835.28
2023-03-02T21:43:19.857Z,100798.38
2023-03-02T21:45:47.448Z,100899.66
2023-03-02T21:48:14.544Z,100891.81
2023-03-02T21:50:41.382Z,100904.94
2023-03-02T21:53:08.709Z,100771.50
2023-03-02T21:55:37.008Z,100855.16
2023-03-02T21:58:04.030Z,100890.16
2023-03-02T22:00:36.112Z,100846.19
2023-03-02T22:03:02.947Z,100870.53
2023-03-02T22:05:30.287Z,100797.19
2023-03-02T22:07:57.453Z,100757.50
2023-03-02T22:10:24.289Z,100903.56
2023-03-02T22:12:54.840Z,100669.69
2023-03-02T22:15:22.572Z,100942.13
2023-03-02T22:17:51.381Z,100850.38
2023-03-02T22:20:18.958Z,100802.56
2023-03-02T22:22:45.942Z,100806.19
2023-03-02T22:25:15.726Z,100743.78
2023-03-02T22:27:42.720Z,100765.88
2023-03-02T22:30:20.561Z,100880.00
2023-03-02T22:32:47.572Z,100873.03
2023-03-02T22:35:14.826Z,100906.59
2023-03-02T22:37:41.999Z,100902.41
2023-03-02T22:40:29.325Z,100900.72
2023-03-02T22:43:23.202Z,100909.13
2023-03-02T22:45:49.981Z,100879.16
2023-03-02T22:48:18.214Z,100908.53
2023-03-02T22:50:46.359Z,100752.94
2023-03-02T22:53:30.389Z,100784.88
2023-03-02T22:56:01.861Z,100876.34
2023-03-02T22:58:31.771Z,100904.34
2023-03-02T23:00:58.785Z,100908.81
2023-03-02T23:03:40.263Z,100907.94
2023-03-02T23:06:24.360Z,100897.34
2023-03-02T23:08:56.081Z,100891.44
2023-03-02T23:11:23.476Z,100866.50
2023-03-02T23:13:50.583Z,100910.16
2023-03-02T23:16:28.309Z,100858.38
2023-03-02T23:18:56.385Z,100862.00
2023-03-02T23:21:37.740Z,100905.94
2023-03-02T23:24:05.041Z,100835.41
2023-03-02T23:26:31.994Z,100835.66
2023-03-02T23:28:59.116Z,100913.44
2023-03-02T23:31:25.914Z,100900.84
2023-03-02T23:33:52.831Z,100889.94
2023-03-02T23:36:21.309Z,100847.63
2023-03-02T23:38:48.986Z,100845.03
2023-03-02T23:41:16.010Z,100750.94
2023-03-02T23:43:42.861Z,100849.66
2023-03-02T23:46:14.037Z,100890.59
2023-03-02T23:48:41.772Z,100867.28
2023-03-02T23:51:08.911Z,100857.44
2023-03-02T23:53:35.744Z,100891.88
2023-03-02T23:56:02.480Z,100850.38
2023-03-02T23:58:29.434Z,100696.34
